Beaver Dam, Wisconsin
Current Conditions -  °F | °C
As of 1:35 PM on Thursday 30 Oct 2014 (Local Time) from KUNU Reporting Station
Broken Clouds Broken Clouds  
Wind Chill:   Ceiling: 9000
Heat Index:   Visibility: 10mi
Dew Point:   Wind: 6mph
Humidity: 61%   Direction: 270°W
Pressure: 30.07"   Gusts: NA
Location:  43.46°N, 88.83°W
Report Text: KUNU 301835Z AUTO 27005KT 10SM SCT080 BKN090 08/01 A3007 RMK AO2 T00810009
Loading
Personal Weather Stations






























Interactive Weather Map
Tropical Storm Tracking
New forecast layout! Learn more

10-Day Weather Forecast

Advertisements
Track Severe Weather on mobile